ADDS METAR Data INFO
IDs: Format: Raw Decoded Include TAF

Data at: 0144 UTC 17 Oct 2017

KPEA 170135Z AUTO 18007KT 10SM CLR 12/04 A3018 RMK AO2 T01200037
KPEA 170115Z AUTO 17007KT 10SM CLR 13/04 A3018 RMK AO2 T01260036
KPEA 170055Z AUTO 17006KT 10SM CLR 13/03 A3019 RMK AO2 T01280033
KPEA 170035Z AUTO 17005KT 10SM CLR 13/03 A3019 RMK AO2 T01330032
KPEA 170015Z AUTO 18005KT 10SM CLR 14/03 A3018 RMK AO2 T01350031
KPEA 162355Z AUTO 19005KT 10SM CLR 14/03 A3018 RMK AO2 T01420026 10202 20142
KPEA 162335Z AUTO 19006KT 10SM CLR 16/02 A3018 RMK AO2 T01610020
KPEA 162315Z AUTO 20006KT 10SM CLR 18/02 A3019 RMK AO2 T01750016
KPEA 162255Z AUTO 20006KT 5SM HZ CLR 19/02 A3019 RMK AO2 T01850015
KPEA 162235Z AUTO 20008KT 10SM CLR 19/01 A3020 RMK AO2 T01930008
KPEA 162215Z AUTO 22006KT 10SM CLR 20/01 A3020 RMK AO2 T01970011
KPEA 162155Z AUTO 22005KT 10SM CLR 20/01 A3021 RMK AO2 T02010008
KPEA 162135Z AUTO 21009KT 10SM CLR 20/01 A3022 RMK AO2 T02020011
KPEA 162115Z AUTO 23006KT 10SM CLR 20/01 A3022 RMK AO2 T02010009
KPEA 162055Z AUTO 22008KT 10SM CLR 20/01 A3022 RMK AO2 T02010013
KPEA 162035Z AUTO 22009KT 10SM CLR 20/01 A3023 RMK AO2 T02010011
KPEA 162015Z AUTO 22006KT 10SM CLR 20/01 A3024 RMK AO2 T01990010
KPEA 161955Z AUTO 22006KT 10SM CLR 20/01 A3025 RMK AO2 T01970010
KPEA 161935Z AUTO 24007KT 10SM CLR 20/01 A3026 RMK AO2 T01960014
KPEA 161915Z AUTO 25009KT 10SM CLR 20/01 A3027 RMK AO2 T01950013
KPEA 161835Z AUTO 25009KT 10SM CLR 19/01 A3030 RMK AO2 T01870006
KPEA 161815Z AUTO 25006KT 10SM CLR 19/02 A3031 RMK AO2 T01860018
KPEA 161755Z AUTO 25005KT 10SM CLR 18/02 A3032 RMK AO2 T01780020 10180 20031
KPEA 161735Z AUTO 24004KT 10SM CLR 18/03 A3033 RMK AO2 T01750026
KPEA 161715Z AUTO 25005KT 10SM CLR 17/04 A3034 RMK AO2 T01700037
KPEA 161655Z AUTO 24004KT 10SM CLR 16/03 A3034 RMK AO2 T01620031
KPEA 161635Z AUTO 25004KT 10SM CLR 15/04 A3034 RMK AO2 T01490038
KPEA 161615Z AUTO 25005KT 10SM CLR 14/04 A3035 RMK AO2 T01390037
KPEA 161555Z AUTO 26005KT 10SM CLR 13/04 A3035 RMK AO2 T01310041
KPEA 161535Z AUTO 27004KT 10SM CLR 12/05 A3035 RMK AO2 T01150048
KPEA 161515Z AUTO 27004KT 10SM CLR 11/04 A3036 RMK AO2 T01060041
KPEA 161455Z AUTO 26004KT 7SM CLR 10/04 A3035 RMK AO2 T00960037
KPEA 161435Z AUTO 26007KT 10SM CLR 09/04 A3036 RMK AO2 T00870036
KPEA 161415Z AUTO 27007KT 10SM CLR 08/04 A3035 RMK AO2 T00830036
KPEA 161355Z AUTO 23003KT 10SM CLR 08/04 A3035 RMK AO2 T00800042
KPEA 161335Z AUTO 00000KT 7SM CLR 07/04 A3034 RMK AO2 T00650041
KPEA 161315Z AUTO 00000KT 10SM CLR 05/03 A3033 RMK AO2 T00460026
KPEA 161255Z AUTO 00000KT 10SM CLR 03/03 A3034 RMK AO2 T00340025
KPEA 161235Z AUTO 00000KT 10SM CLR 03/02 A3034 RMK AO2 T00310020
KPEA 161215Z AUTO 25003KT 10SM CLR 04/02 A3034 RMK AO2 T00430022
KPEA 161155Z AUTO 25003KT 10SM CLR 04/02 A3034 RMK AO2 T00410021 10076 20041
KPEA 161135Z AUTO 28006KT 10SM CLR 05/02 A3034 RMK AO2 T00450020
KPEA 161115Z AUTO 27003KT 10SM CLR 05/02 A3033 RMK AO2 T00530020
KPEA 161055Z AUTO 26006KT 10SM CLR 06/02 A3033 RMK AO2 T00550022
KPEA 161035Z AUTO 26004KT 10SM CLR 06/03 A3032 RMK AO2 T00560025
KPEA 161015Z AUTO 26004KT 10SM CLR 05/02 A3032 RMK AO2 T00490023
KPEA 160955Z AUTO 25004KT 10SM CLR 06/02 A3031 RMK AO2 T00600023
KPEA 160935Z AUTO 26005KT 10SM CLR 06/02 A3031 RMK AO2 T00610022
KPEA 160915Z AUTO 26005KT 10SM CLR 06/02 A3031 RMK AO2 T00610023
KPEA 160855Z AUTO 26005KT 10SM CLR 06/02 A3031 RMK AO2 T00620022
KPEA 160835Z AUTO 26006KT 10SM CLR 07/02 A3031 RMK AO2 T00650022
KPEA 160815Z AUTO 27006KT 10SM CLR 07/02 A3031 RMK AO2 T00670023
KPEA 160755Z AUTO 26006KT 10SM CLR 07/03 A3031 RMK AO2 T00660025
KPEA 160735Z AUTO 26005KT 10SM CLR 07/03 A3031 RMK AO2 T00660026
KPEA 160715Z AUTO 27004KT 10SM CLR 07/03 A3031 RMK AO2 T00700026
KPEA 160655Z AUTO 25005KT 10SM CLR 08/02 A3031 RMK AO2 T00750022
KPEA 160635Z AUTO 26005KT 10SM CLR 07/02 A3031 RMK AO2 T00730021
KPEA 160615Z AUTO 25004KT 10SM CLR 07/03 A3031 RMK AO2 T00720025
KPEA 160555Z AUTO 24004KT 10SM CLR 07/02 A3031 RMK AO2 T00710022 10100 20043
KPEA 160535Z AUTO 24003KT 10SM CLR 07/02 A3031 RMK AO2 T00730022
KPEA 160515Z AUTO 24003KT 10SM CLR 07/02 A3031 RMK AO2 T00720020
KPEA 160455Z AUTO 24004KT 10SM CLR 07/02 A3031 RMK AO2 T00700020 401510043
KPEA 160435Z AUTO 25004KT 10SM CLR 05/03 A3032 RMK AO2 T00530025
KPEA 160415Z AUTO 21003KT 10SM CLR 04/03 A3032 RMK AO2 T00430027
KPEA 160355Z AUTO 00000KT 10SM CLR 05/03 A3032 RMK AO2 T00530029
KPEA 160335Z AUTO 00000KT 10SM CLR 06/03 A3032 RMK AO2 T00570030
KPEA 160315Z AUTO 22003KT 10SM CLR 07/03 A3031 RMK AO2 T00720028
KPEA 160255Z AUTO 24003KT 10SM CLR 08/03 A3031 RMK AO2 T00830025
KPEA 160235Z AUTO 26004KT 10SM CLR 08/03 A3031 RMK AO2 T00810029
KPEA 160215Z AUTO 25003KT 10SM CLR 09/03 A3031 RMK AO2 T00850029
KPEA 160155Z AUTO 26003KT 10SM CLR 09/03 A3031 RMK AO2 T00880026
KPEA 160135Z AUTO 26003KT 10SM CLR 09/02 A3031 RMK AO2 T00860020
KPEA 160115Z AUTO 26004KT 10SM CLR 09/00 A3031 RMK AO2 T00880000
KPEA 160055Z AUTO 28004KT 10SM CLR 09/00 A3030 RMK AO2 T00871001
KPEA 160035Z AUTO 27004KT 10SM CLR 09/00 A3030 RMK AO2 T00890000
KPEA 160015Z AUTO 29004KT 10SM CLR 10/00 A3029 RMK AO2 T00950000
KPEA 152355Z AUTO 29004KT 10SM CLR 10/00 A3029 RMK AO2 T01020002 10151 20102
KPEA 152335Z AUTO 29005KT 10SM CLR 11/01 A3029 RMK AO2 T01110005
KPEA 152315Z AUTO 30005KT 10SM CLR 13/01 A3028 RMK AO2 T01260011
KPEA 152255Z AUTO 29006KT 10SM CLR 14/01 A3028 RMK AO2 T01350010
KPEA 152235Z AUTO 30011G15KT 10SM CLR 14/00 A3027 RMK AO2 T01400002
KPEA 152215Z AUTO 30013G16KT 10SM CLR 14/01 A3027 RMK AO2 T01410007
KPEA 152155Z AUTO 29012G18KT 10SM CLR 15/01 A3027 RMK AO2 T01450007
KPEA 152135Z AUTO 29012G18KT 10SM CLR 15/02 A3027 RMK AO2 T01470018
KPEA 152115Z AUTO 31013G18KT 10SM CLR 15/02 A3027 RMK AO2 T01500020
KPEA 152055Z AUTO 30010G16KT 10SM SCT049 14/03 A3027 RMK AO2 T01360029
KPEA 152035Z AUTO 28012G20KT 10SM SCT047 15/03 A3027 RMK AO2 T01470027
KPEA 152015Z AUTO 32008G14KT 10SM SCT045 14/03 A3026 RMK AO2 T01380028
KPEA 151935Z AUTO 30011G15KT 10SM SCT041 15/04 A3026 RMK AO2 T01460043
KPEA 151915Z AUTO 32011G16KT 10SM SCT039 13/04 A3027 RMK AO2 T01310037
KPEA 151855Z AUTO 32009G16KT 10SM SCT037 13/04 A3028 RMK AO2 T01250041
KPEA 151835Z AUTO 30013G18KT 280V340 10SM BKN035 14/05 A3028 RMK AO2 T01360046
KPEA 151815Z AUTO 33010G18KT 10SM BKN033 BKN040 12/04 A3029 RMK AO2 T01240043
KPEA 151755Z AUTO 29014G19KT 10SM BKN031 BKN037 12/04 A3029 RMK AO2 T01200042 10123 20077
KPEA 151735Z AUTO 33009G17KT 10SM BKN031 12/05 A3028 RMK AO2 T01160046
KPEA 151715Z AUTO 33011G16KT 10SM OVC031 11/04 A3029 RMK AO2 T01070041
KPEA 151655Z AUTO 32013G20KT 10SM OVC029 11/04 A3028 RMK AO2 T01050042
KPEA 151615Z AUTO 33012G20KT 10SM OVC029 10/04 A3027 RMK AO2 T00990039
KPEA 151555Z AUTO 33010G18KT 10SM OVC029 10/04 A3026 RMK AO2 T00970039
KPEA 151535Z AUTO 32013G16KT 10SM OVC027 10/04 A3025 RMK AO2 T00950038
KPEA 151515Z AUTO 33012G20KT 10SM OVC027 09/04 A3024 RMK AO2 T00940042
KPEA 151455Z AUTO 32013G20KT 10SM OVC027 09/04 A3023 RMK AO2 T00910038
KPEA 151435Z AUTO 32012G20KT 10SM OVC027 09/04 A3022 RMK AO2 T00900040
KPEA 151415Z AUTO 32012G19KT 10SM OVC027 09/04 A3021 RMK AO2 T00870039
KPEA 151355Z AUTO 32014G23KT 10SM OVC027 08/04 A3020 RMK AO2 T00830040